Time;durP1;ratioP1;P1;durP2;ratioP2;P2;SDS_P1;SDS_P2;PMS_P1;PMS_P2;Temp;Humidity;BMP_temperature;BMP_pressure;BME280_temperature;BME280_humidity;BME280_pressure;Samples;Min_cycle;Max_cycle;Signal;HPM_P1;HPM_P2
2021/06/23 00:00:40;;;;;;;14.88;11.18;;;18.30;99.90;;;;;;5076119;28;20575;-65
2021/06/23 00:03:07;;;;;;;16.33;11.90;;;18.50;99.90;;;;;;5076300;28;20040;-65
2021/06/23 00:05:34;;;;;;;13.82;11.15;;;18.40;99.90;;;;;;5074930;28;20411;-66
2021/06/23 00:08:01;;;;;;;18.08;12.65;;;18.40;99.90;;;;;;5076651;28;20050;-65
2021/06/23 00:10:29;;;;;;;18.98;12.80;;;18.40;99.90;;;;;;5074436;28;20503;-66
2021/06/23 00:13:03;;;;;;;15.63;12.23;;;18.50;99.90;;;;;;5074208;28;20051;-65
2021/06/23 00:15:31;;;;;;;16.75;12.70;;;18.50;99.90;;;;;;5074548;28;20488;-65
2021/06/23 00:17:59;;;;;;;15.55;12.35;;;18.50;99.90;;;;;;5073615;28;20054;-65
2021/06/23 00:20:26;;;;;;;15.93;12.80;;;18.50;99.90;;;;;;5075060;28;20043;-65
2021/06/23 00:22:54;;;;;;;17.92;12.32;;;18.50;99.90;;;;;;5075703;28;20055;-65
2021/06/23 00:25:22;;;;;;;16.33;12.55;;;18.40;99.90;;;;;;5074844;28;20134;-65
2021/06/23 00:27:49;;;;;;;16.42;12.77;;;18.40;99.90;;;;;;5074374;28;20124;-65
2021/06/23 00:30:17;;;;;;;19.38;13.70;;;18.40;99.90;;;;;;5074496;28;20055;-65
2021/06/23 00:32:46;;;;;;;17.80;13.70;;;18.40;99.90;;;;;;5074272;28;20044;-65
2021/06/23 00:35:15;;;;;;;23.23;15.05;;;18.40;99.90;;;;;;5073193;28;20059;-65
2021/06/23 00:37:42;;;;;;;21.33;15.32;;;18.40;99.90;;;;;;5074375;28;20047;-65
2021/06/23 00:40:11;;;;;;;23.08;16.75;;;18.40;99.90;;;;;;5070873;28;20052;-65
2021/06/23 00:42:42;;;;;;;26.02;15.35;;;18.30;99.90;;;;;;5071003;28;20056;-65
2021/06/23 00:45:14;;;;;;;22.92;16.15;;;18.40;99.90;;;;;;5070637;28;20071;-65
2021/06/23 00:47:44;;;;;;;21.02;15.98;;;18.30;99.90;;;;;;5073372;28;20094;-65
2021/06/23 00:50:15;;;;;;;22.88;16.92;;;18.30;99.90;;;;;;5071832;28;20043;-65
2021/06/23 00:52:43;;;;;;;22.73;16.80;;;18.30;99.90;;;;;;5072646;28;20040;-65
2021/06/23 00:55:20;;;;;;;26.08;16.48;;;18.20;99.90;;;;;;5073600;28;20634;-65
2021/06/23 00:57:47;;;;;;;;;;;18.20;99.90;;;;;;5072171;28;20052;-65
2021/06/23 01:00:15;;;;;;;;;;;18.20;99.90;;;;;;5073397;28;19924;-65
2021/06/23 01:02:42;;;;;;;22.23;15.60;;;18.10;99.90;;;;;;5072384;28;19924;-65
2021/06/23 01:05:10;;;;;;;22.27;15.75;;;18.00;99.90;;;;;;5074570;28;20052;-65
2021/06/23 01:07:39;;;;;;;20.92;16.38;;;18.00;99.90;;;;;;5073026;28;20119;-65
2021/06/23 01:10:06;;;;;;;19.48;15.23;;;18.00;99.90;;;;;;5073358;28;20043;-65
2021/06/23 01:12:57;;;;;;;17.75;14.40;;;18.10;99.90;;;;;;5073228;28;20059;-65
2021/06/23 01:15:27;;;;;;;20.60;15.02;;;18.20;99.90;;;;;;5072859;28;20436;-65
2021/06/23 01:17:55;;;;;;;22.27;16.95;;;18.20;99.90;;;;;;5071027;28;20501;-65
2021/06/23 01:20:22;;;;;;;27.60;18.77;;;18.00;99.90;;;;;;5074609;28;20507;-65
2021/06/23 01:22:50;;;;;;;24.73;16.65;;;17.90;99.90;;;;;;5072463;28;20048;-65
2021/06/23 01:25:18;;;;;;;27.75;18.40;;;18.00;99.90;;;;;;5074852;28;20052;-65
2021/06/23 01:27:46;;;;;;;25.92;17.20;;;18.10;99.90;;;;;;5074168;28;20058;-65
2021/06/23 01:30:16;;;;;;;21.42;17.00;;;18.10;99.90;;;;;;5075625;28;20148;-65
2021/06/23 01:32:43;;;;;;;20.73;16.55;;;18.10;99.90;;;;;;5073433;28;20070;-65
2021/06/23 01:35:12;;;;;;;19.70;15.23;;;18.10;99.90;;;;;;5064306;28;20052;-65
2021/06/23 01:37:39;;;;;;;22.38;15.35;;;18.20;99.90;;;;;;5061664;28;20044;-65
2021/06/23 01:40:08;;;;;;;22.60;17.38;;;18.10;99.90;;;;;;5062723;28;20056;-65
2021/06/23 01:42:36;;;;;;;19.80;16.17;;;18.10;99.90;;;;;;5061678;28;20093;-65
2021/06/23 01:45:04;;;;;;;19.65;15.82;;;18.10;99.90;;;;;;5061741;28;20059;-65
2021/06/23 01:47:31;;;;;;;23.00;15.70;;;18.20;99.90;;;;;;5061065;28;20166;-65
2021/06/23 01:49:59;;;;;;;24.35;17.17;;;18.20;99.90;;;;;;5061087;28;20044;-65
2021/06/23 01:52:27;;;;;;;23.30;16.52;;;18.20;99.90;;;;;;5062472;28;20530;-65
2021/06/23 01:54:54;;;;;;;22.05;16.40;;;18.10;99.90;;;;;;5063295;28;20431;-65
2021/06/23 01:57:23;;;;;;;23.60;16.80;;;18.20;99.90;;;;;;5061392;28;20059;-66
2021/06/23 01:59:50;;;;;;;22.15;16.55;;;18.10;99.90;;;;;;5063149;28;20060;-65
2021/06/23 02:02:25;;;;;;;23.80;16.95;;;18.10;99.90;;;;;;5062201;28;20492;-65
2021/06/23 02:04:54;;;;;;;23.25;17.33;;;18.20;99.90;;;;;;5063437;28;20048;-65
2021/06/23 02:07:45;;;;;;;24.73;18.05;;;18.10;99.90;;;;;;5063423;28;20045;-65
2021/06/23 02:10:51;;;;;;;25.25;17.45;;;18.10;99.90;;;;;;5063374;28;20052;-65
2021/06/23 02:14:09;;;;;;;29.55;17.52;;;18.10;99.90;;;;;;5012158;28;20186;-65
2021/06/23 02:16:38;;;;;;;24.00;17.83;;;18.10;99.90;;;;;;5064727;28;20063;-65
2021/06/23 02:19:07;;;;;;;23.35;17.02;;;18.00;99.90;;;;;;5064419;28;20052;-65
2021/06/23 02:21:39;;;;;;;22.67;19.10;;;18.00;99.90;;;;;;5067092;28;20054;-65
2021/06/23 02:24:07;;;;;;;24.55;17.95;;;17.90;99.90;;;;;;5066631;28;20087;-65
2021/06/23 02:26:35;;;;;;;24.83;17.63;;;18.10;99.90;;;;;;5066628;28;20503;-65
2021/06/23 02:29:03;;;;;;;25.55;18.67;;;18.00;99.90;;;;;;5064249;28;20384;-65
2021/06/23 02:31:31;;;;;;;25.17;18.80;;;18.00;99.90;;;;;;5066846;28;20484;-65
2021/06/23 02:34:00;;;;;;;26.80;18.67;;;17.90;99.90;;;;;;5066059;28;20051;-65
2021/06/23 02:36:29;;;;;;;27.70;19.58;;;17.90;99.90;;;;;;5053975;28;20051;-65
2021/06/23 02:38:56;;;;;;;25.48;18.95;;;17.90;99.90;;;;;;5054542;28;20052;-65
2021/06/23 02:41:23;;;;;;;27.83;19.20;;;18.00;99.90;;;;;;5063627;28;20052;-65
2021/06/23 02:43:51;;;;;;;26.60;19.13;;;18.00;99.90;;;;;;5064060;28;20057;-65
2021/06/23 02:46:19;;;;;;;27.08;20.45;;;18.00;99.90;;;;;;5064331;28;20117;-65
2021/06/23 02:48:46;;;;;;;24.80;19.73;;;17.90;99.90;;;;;;5066769;28;20063;-65
2021/06/23 02:51:22;;;;;;;34.63;22.08;;;17.80;99.90;;;;;;5066458;28;20063;-65
2021/06/23 02:53:51;;;;;;;26.40;20.10;;;17.80;99.90;;;;;;5065336;28;20075;-65
2021/06/23 02:56:20;;;;;;;25.90;20.10;;;17.70;99.90;;;;;;5065069;28;20839;-66
2021/06/23 02:58:49;;;;;;;29.17;21.02;;;17.70;99.90;;;;;;5067366;28;20044;-65
2021/06/23 03:01:17;;;;;;;29.95;19.95;;;17.70;99.90;;;;;;5059017;28;20144;-65
2021/06/23 03:03:45;;;;;;;25.73;19.70;;;17.70;99.90;;;;;;5062718;28;20472;-65
2021/06/23 03:06:12;;;;;;;30.80;20.85;;;17.80;99.90;;;;;;5060744;28;20052;-65
2021/06/23 03:08:40;;;;;;;30.05;21.60;;;17.80;99.90;;;;;;5062374;28;20431;-65
2021/06/23 03:11:08;;;;;;;30.58;21.10;;;17.90;99.90;;;;;;5064305;28;20052;-65
2021/06/23 03:13:35;;;;;;;30.38;21.33;;;17.90;99.90;;;;;;5065115;28;20044;-65
2021/06/23 03:16:03;;;;;;;31.52;20.88;;;17.90;99.90;;;;;;5062961;28;20105;-65
2021/06/23 03:18:32;;;;;;;27.23;20.30;;;17.90;99.90;;;;;;5060025;28;20127;-65
2021/06/23 03:21:00;;;;;;;26.20;20.90;;;17.90;99.90;;;;;;5061373;28;20052;-66
2021/06/23 03:23:27;;;;;;;29.90;22.48;;;17.80;99.90;;;;;;5062024;28;20259;-65
2021/06/23 03:25:55;;;;;;;29.90;21.98;;;17.80;99.90;;;;;;5064701;28;20044;-66
2021/06/23 03:28:23;;;;;;;34.63;21.90;;;17.80;99.90;;;;;;5061697;28;20047;-65
2021/06/23 03:30:50;;;;;;;29.25;21.45;;;17.60;99.90;;;;;;5062613;28;20181;-65
2021/06/23 03:33:17;;;;;;;29.73;23.00;;;17.70;99.90;;;;;;5062576;28;20051;-65
2021/06/23 03:35:45;;;;;;;31.08;21.50;;;17.70;99.90;;;;;;5062973;28;20633;-65
2021/06/23 03:38:12;;;;;;;29.33;20.92;;;17.70;99.90;;;;;;5060541;28;20415;-65
2021/06/23 03:40:39;;;;;;;31.75;22.08;;;17.80;99.90;;;;;;5062948;28;20052;-65
2021/06/23 03:43:08;;;;;;;27.67;20.40;;;17.60;99.90;;;;;;5063203;28;20136;-65
2021/06/23 03:45:35;;;;;;;28.52;20.63;;;17.70;99.90;;;;;;5061468;28;20051;-65
2021/06/23 03:48:02;;;;;;;27.30;19.65;;;17.60;99.90;;;;;;5061895;28;20118;-65
2021/06/23 03:50:29;;;;;;;27.67;20.75;;;17.60;99.90;;;;;;5062988;28;20143;-65
2021/06/23 03:52:56;;;;;;;25.80;19.75;;;17.70;99.90;;;;;;5063752;28;20062;-65
2021/06/23 03:55:26;;;;;;;26.05;18.60;;;17.70;99.90;;;;;;5061845;28;20135;-65
2021/06/23 03:57:55;;;;;;;24.73;18.13;;;17.80;99.90;;;;;;5062681;28;20274;-65
2021/06/23 04:00:26;;;;;;;26.35;19.25;;;17.80;99.90;;;;;;5062973;28;20106;-65
2021/06/23 04:02:53;;;;;;;26.60;19.67;;;17.80;99.90;;;;;;5062823;28;20048;-65
2021/06/23 04:05:20;;;;;;;26.90;19.73;;;17.70;99.90;;;;;;5062332;28;20614;-65
2021/06/23 04:07:48;;;;;;;26.23;19.25;;;17.70;99.90;;;;;;5062070;28;20533;-66
2021/06/23 04:10:15;;;;;;;27.60;19.00;;;17.70;99.90;;;;;;5059652;28;20091;-66
2021/06/23 04:12:43;;;;;;;25.73;18.63;;;17.70;99.90;;;;;;5061830;28;20081;-65
2021/06/23 04:15:12;;;;;;;27.27;18.25;;;17.70;99.90;;;;;;5061513;28;20476;-65
2021/06/23 04:17:41;;;;;;;22.02;17.63;;;17.80;99.90;;;;;;5059986;28;20560;-65
2021/06/23 04:20:10;;;;;;;27.05;18.02;;;17.70;99.90;;;;;;5062376;28;20051;-66
2021/06/23 04:22:37;;;;;;;27.65;19.08;;;17.80;99.90;;;;;;5061836;28;20056;-65
2021/06/23 04:25:07;;;;;;;29.50;19.10;;;17.80;99.90;;;;;;5062428;28;20083;-65
2021/06/23 04:27:34;;;;;;;26.00;17.50;;;17.80;99.90;;;;;;5062182;28;20048;-65
2021/06/23 04:30:01;;;;;;;27.65;18.33;;;17.90;99.90;;;;;;5063230;28;20075;-65
2021/06/23 04:32:28;;;;;;;24.95;18.50;;;18.00;99.90;;;;;;5060502;28;20052;-65
2021/06/23 04:34:56;;;;;;;26.38;18.17;;;18.00;99.90;;;;;;5069520;28;20047;-65
2021/06/23 04:37:23;;;;;;;23.73;18.15;;;18.00;99.90;;;;;;5075017;28;20117;-65
2021/06/23 04:39:50;;;;;;;30.23;20.40;;;18.10;99.90;;;;;;5073841;28;20103;-65
2021/06/23 04:42:17;;;;;;;28.02;20.17;;;18.10;99.90;;;;;;5074913;28;20519;-65
2021/06/23 04:44:44;;;;;;;27.85;20.73;;;17.90;99.90;;;;;;5073016;28;20075;-64
2021/06/23 04:47:11;;;;;;;27.90;20.95;;;17.90;99.90;;;;;;5073524;28;20082;-65
2021/06/23 04:49:38;;;;;;;29.95;21.40;;;17.70;99.90;;;;;;5076067;28;20125;-65
2021/06/23 04:52:07;;;;;;;32.30;23.80;;;17.60;99.90;;;;;;5075751;28;20130;-65
2021/06/23 04:54:34;;;;;;;36.95;23.85;;;17.50;99.90;;;;;;5075602;28;20093;-65
2021/06/23 04:57:01;;;;;;;32.72;23.65;;;17.60;99.90;;;;;;5072685;28;20051;-65
2021/06/23 04:59:29;;;;;;;30.08;22.75;;;17.50;99.90;;;;;;5075582;28;20067;-65
2021/06/23 05:01:56;;;;;;;33.58;23.02;;;17.60;99.90;;;;;;5072446;28;20405;-65
2021/06/23 05:04:23;;;;;;;34.38;24.77;;;17.60;99.90;;;;;;5075160;28;20100;-65
2021/06/23 05:06:53;;;;;;;37.40;25.17;;;17.50;99.90;;;;;;5075046;28;20573;-65
2021/06/23 05:09:21;;;;;;;35.88;25.42;;;17.40;99.90;;;;;;5072199;28;20058;-65
2021/06/23 05:11:49;;;;;;;35.47;24.10;;;17.30;99.90;;;;;;5073781;28;20043;-65
2021/06/23 05:14:15;;;;;;;30.77;22.35;;;17.20;99.90;;;;;;5073937;28;20048;-65
2021/06/23 05:16:46;;;;;;;35.03;24.13;;;17.30;99.90;;;;;;5072782;28;20091;-65
2021/06/23 05:19:13;;;;;;;34.92;24.63;;;17.30;99.90;;;;;;5072623;28;20056;-65
2021/06/23 05:21:40;;;;;;;32.88;24.65;;;17.30;99.90;;;;;;5076344;28;20125;-65
2021/06/23 05:24:08;;;;;;;35.38;24.48;;;17.30;99.90;;;;;;5076481;28;20086;-65
2021/06/23 05:26:36;;;;;;;35.30;25.42;;;17.30;99.90;;;;;;5078827;28;20140;-65
2021/06/23 05:29:04;;;;;;;36.42;24.63;;;17.30;99.90;;;;;;5077737;28;20052;-65
2021/06/23 05:31:31;;;;;;;34.00;23.85;;;17.40;99.90;;;;;;5075065;28;20070;-65
2021/06/23 05:33:59;;;;;;;34.58;25.13;;;17.40;99.90;;;;;;5077248;28;20052;-65
2021/06/23 05:36:26;;;;;;;34.60;23.08;;;17.50;99.90;;;;;;5075898;28;20062;-65
2021/06/23 05:38:53;;;;;;;33.85;24.98;;;17.50;99.90;;;;;;5073852;28;20106;-65
2021/06/23 05:41:20;;;;;;;29.20;23.15;;;17.60;99.90;;;;;;5077771;28;20136;-65
2021/06/23 05:43:49;;;;;;;35.92;24.52;;;17.50;99.90;;;;;;5076669;28;20048;-65
2021/06/23 05:46:16;;;;;;;31.08;21.67;;;17.60;99.90;;;;;;5074505;28;20557;-66
2021/06/23 05:48:43;;;;;;;34.10;21.83;;;17.70;99.90;;;;;;5077701;28;20094;-66
2021/06/23 05:51:10;;;;;;;28.40;19.90;;;17.80;99.90;;;;;;5078225;28;20091;-64
2021/06/23 05:53:38;;;;;;;27.98;19.85;;;17.80;99.90;;;;;;5078206;28;20059;-66
2021/06/23 05:56:07;;;;;;;23.45;17.40;;;17.80;99.90;;;;;;5075977;28;20051;-64
2021/06/23 05:58:34;;;;;;;27.52;19.65;;;18.00;99.90;;;;;;5072436;28;20212;-66
2021/06/23 06:01:05;;;;;;;28.15;19.48;;;18.00;99.90;;;;;;5072489;28;20051;-64
2021/06/23 06:03:32;;;;;;;26.42;19.23;;;18.10;99.90;;;;;;5071924;28;20056;-66
2021/06/23 06:05:59;;;;;;;34.22;20.73;;;18.10;99.90;;;;;;5073095;28;20062;-66
2021/06/23 06:08:27;;;;;;;31.63;19.10;;;18.20;99.90;;;;;;5071820;28;20043;-66
2021/06/23 06:10:54;;;;;;;31.08;19.17;;;18.20;99.90;;;;;;5073055;28;20852;-66
2021/06/23 06:13:21;;;;;;;32.00;20.48;;;18.40;99.90;;;;;;5079783;28;20052;-66
2021/06/23 06:15:48;;;;;;;24.67;17.27;;;18.50;99.90;;;;;;5079561;28;20353;-66
2021/06/23 06:18:17;;;;;;;23.60;17.42;;;18.70;99.90;;;;;;5076367;28;20148;-66
2021/06/23 06:20:44;;;;;;;25.52;18.58;;;18.80;99.90;;;;;;5077457;28;20059;-66
2021/06/23 06:23:11;;;;;;;27.90;18.38;;;18.90;99.90;;;;;;5076834;28;20052;-67
2021/06/23 06:25:38;;;;;;;27.08;17.77;;;18.90;99.90;;;;;;5077242;28;20052;-66
2021/06/23 06:28:05;;;;;;;28.58;18.05;;;18.80;99.90;;;;;;5075045;28;20048;-66
2021/06/23 06:30:32;;;;;;;26.45;18.42;;;18.80;99.90;;;;;;5076216;28;20043;-66
2021/06/23 06:32:59;;;;;;;28.52;18.55;;;18.70;99.90;;;;;;5078814;28;20109;-64
2021/06/23 06:35:28;;;;;;;32.80;19.40;;;18.80;99.90;;;;;;5068363;28;20164;-64
2021/06/23 06:37:56;;;;;;;25.80;17.67;;;18.90;99.90;;;;;;5066415;28;20052;-64
2021/06/23 06:40:23;;;;;;;25.27;17.75;;;19.00;99.90;;;;;;5065646;28;20505;-64
2021/06/23 06:42:50;;;;;;;25.85;18.23;;;19.00;99.90;;;;;;5064727;28;20500;-64
2021/06/23 06:45:18;;;;;;;21.65;16.52;;;19.00;99.90;;;;;;5066335;28;20083;-64
2021/06/23 06:47:45;;;;;;;27.70;17.88;;;18.90;99.90;;;;;;5065792;28;20142;-64
2021/06/23 06:50:13;;;;;;;24.70;17.40;;;19.00;99.90;;;;;;5067273;28;20048;-64
2021/06/23 06:52:41;;;;;;;24.23;17.27;;;18.90;99.90;;;;;;5066177;28;20793;-64
2021/06/23 06:55:10;;;;;;;26.05;17.95;;;19.00;99.90;;;;;;5065639;28;20719;-66
2021/06/23 06:57:37;;;;;;;29.40;19.05;;;19.00;99.90;;;;;;5065747;28;20554;-66
2021/06/23 07:00:07;;;;;;;27.02;18.20;;;19.00;99.90;;;;;;5066281;28;20849;-65
2021/06/23 07:02:33;;;;;;;26.08;17.48;;;19.10;99.90;;;;;;5065677;28;20071;-65
2021/06/23 07:05:01;;;;;;;25.75;18.25;;;19.20;99.90;;;;;;5067418;28;20512;-65
2021/06/23 07:07:28;;;;;;;27.27;17.83;;;19.20;99.90;;;;;;5063212;28;20052;-65
2021/06/23 07:09:56;;;;;;;23.67;17.98;;;19.30;99.90;;;;;;5063840;28;20562;-65
2021/06/23 07:12:23;;;;;;;22.50;17.25;;;19.40;99.90;;;;;;5064816;28;20447;-65
2021/06/23 07:14:50;;;;;;;26.27;17.42;;;19.30;99.90;;;;;;5065852;28;20075;-65
2021/06/23 07:17:17;;;;;;;26.30;17.75;;;19.30;99.90;;;;;;5066064;28;20499;-65
2021/06/23 07:19:44;;;;;;;26.35;18.45;;;19.40;99.90;;;;;;5065138;28;20076;-65
2021/06/23 07:22:11;;;;;;;27.27;17.63;;;19.40;99.90;;;;;;5065124;28;20083;-65
2021/06/23 07:24:38;;;;;;;21.75;16.25;;;19.50;99.90;;;;;;5066533;28;20075;-66
2021/06/23 07:27:08;;;;;;;24.70;17.80;;;19.60;99.90;;;;;;5066625;28;21103;-65
2021/06/23 07:29:35;;;;;;;23.38;17.27;;;19.60;99.90;;;;;;5064267;28;20168;-66
2021/06/23 07:32:04;;;;;;;31.17;18.95;;;19.70;99.90;;;;;;5066298;28;20083;-65
2021/06/23 07:37:16;;;;;;;25.63;18.52;;;19.70;99.90;;;;;;5065795;28;20048;-66
2021/06/23 07:39:43;;;;;;;26.92;17.95;;;19.70;99.90;;;;;;5065843;28;20697;-65
2021/06/23 07:42:12;;;;;;;30.92;18.00;;;19.80;99.90;;;;;;5067004;28;20458;-65
2021/06/23 07:44:42;;;;;;;24.58;17.23;;;19.80;99.90;;;;;;5065445;28;20176;-65
2021/06/23 07:47:12;;;;;;;23.83;16.65;;;19.80;99.90;;;;;;5065123;28;20055;-65
2021/06/23 07:49:41;;;;;;;24.15;17.27;;;19.90;99.90;;;;;;5065177;28;20115;-65
2021/06/23 07:52:10;;;;;;;23.80;17.02;;;19.90;99.90;;;;;;5065952;28;20063;-66
2021/06/23 07:54:50;;;;;;;25.13;17.35;;;20.10;99.90;;;;;;5067624;28;20060;-65
2021/06/23 08:08:10;;;;;;;24.20;17.47;;;20.40;99.90;;;;;;5068744;28;20476;-66
2021/06/23 08:08:58;;;;;;;27.92;17.58;;;19.90;99.90;;;;;;5064973;28;20178;-65
2021/06/23 08:11:29;;;;;;;24.83;16.77;;;20.20;99.90;;;;;;5066573;28;20052;-65
2021/06/23 08:13:58;;;;;;;23.65;16.52;;;20.60;99.90;;;;;;5064048;28;20474;-65
2021/06/23 08:16:25;;;;;;;24.20;17.83;;;20.90;99.90;;;;;;5063546;28;20459;-65
2021/06/23 08:18:52;;;;;;;24.30;17.92;;;20.70;99.90;;;;;;5063270;28;20057;-65
2021/06/23 08:21:19;;;;;;;25.77;17.80;;;20.80;99.90;;;;;;5063487;28;20052;-66
2021/06/23 08:23:46;;;;;;;25.30;18.35;;;20.80;99.90;;;;;;5064905;28;20094;-65
2021/06/23 08:26:13;;;;;;;22.33;16.63;;;21.10;99.90;;;;;;5065124;28;20105;-65
2021/06/23 08:28:40;;;;;;;27.63;17.23;;;21.10;99.90;;;;;;5063492;28;20097;-65
2021/06/23 08:31:09;;;;;;;23.63;16.05;;;20.90;99.90;;;;;;5065456;28;20356;-66
2021/06/23 08:33:36;;;;;;;26.35;16.35;;;21.10;99.90;;;;;;5064645;28;20133;-65
2021/06/23 08:36:04;;;;;;;25.90;17.77;;;21.30;99.90;;;;;;5065479;28;20416;-65
2021/06/23 08:38:31;;;;;;;22.92;17.90;;;21.40;99.90;;;;;;5063528;28;20423;-66
2021/06/23 08:40:58;;;;;;;29.63;19.35;;;21.30;99.90;;;;;;5064200;28;20151;-65
2021/06/23 08:43:25;;;;;;;23.50;17.80;;;21.00;99.90;;;;;;5064460;28;20056;-65
2021/06/23 08:45:53;;;;;;;26.17;18.10;;;21.10;99.90;;;;;;5061552;28;20052;-66
2021/06/23 08:48:21;;;;;;;26.55;17.98;;;21.10;99.90;;;;;;5061236;28;20060;-65
2021/06/23 08:50:48;;;;;;;24.38;17.60;;;21.20;99.90;;;;;;5065773;28;20512;-65
2021/06/23 08:53:15;;;;;;;27.95;19.70;;;21.30;99.90;;;;;;5064636;28;20507;-66
2021/06/23 08:55:42;;;;;;;30.38;18.88;;;21.10;99.90;;;;;;5066089;28;20111;-66
2021/06/23 08:58:09;;;;;;;24.90;18.90;;;21.20;99.90;;;;;;5062514;28;20489;-65
2021/06/23 09:00:36;;;;;;;27.75;19.08;;;21.20;99.90;;;;;;5064206;28;20043;-67
2021/06/23 09:03:07;;;;;;;27.90;19.10;;;21.50;99.90;;;;;;5066435;28;20052;-66
2021/06/23 09:05:59;;;;;;;35.97;20.23;;;21.50;99.90;;;;;;5066567;28;20451;-66
2021/06/23 09:08:35;;;;;;;24.98;18.80;;;21.50;99.90;;;;;;5042717;28;20055;-66
2021/06/23 09:11:13;;;;;;;28.48;19.35;;;21.70;99.90;;;;;;5063069;28;20048;-66
2021/06/23 09:13:40;;;;;;;26.38;19.00;;;21.70;99.90;;;;;;5064750;28;20200;-66
2021/06/23 09:16:07;;;;;;;29.08;19.48;;;22.00;99.90;;;;;;5064195;28;20052;-66
2021/06/23 09:18:36;;;;;;;31.30;19.13;;;22.00;99.90;;;;;;5062572;28;20075;-66
2021/06/23 09:21:13;;;;;;;27.58;19.02;;;22.10;99.90;;;;;;5065227;28;20415;-66
2021/06/23 09:23:46;;;;;;;26.08;17.90;;;22.10;99.90;;;;;;5064050;28;20048;-66
2021/06/23 09:26:22;;;;;;;26.63;19.55;;;22.10;99.90;;;;;;5065533;28;20059;-66
2021/06/23 09:29:06;;;;;;;25.35;18.90;;;22.10;99.90;;;;;;5067788;28;20056;-66
2021/06/23 09:31:53;;;;;;;23.67;18.48;;;22.00;99.90;;;;;;5067752;28;20043;-66
2021/06/23 09:34:21;;;;;;;29.55;17.85;;;21.80;99.90;;;;;;5068002;28;20814;-66
2021/06/23 09:36:50;;;;;;;24.92;17.63;;;21.80;99.90;;;;;;5068735;28;20071;-66
2021/06/23 09:39:19;;;;;;;27.95;18.25;;;21.60;99.90;;;;;;5067719;28;20518;-66
2021/06/23 09:41:47;;;;;;;26.58;19.33;;;21.80;99.90;;;;;;5068269;28;20058;-66
2021/06/23 09:44:14;;;;;;;24.98;18.85;;;21.90;99.90;;;;;;5068262;28;20056;-66
2021/06/23 09:46:43;;;;;;;25.08;18.63;;;22.00;99.90;;;;;;5066431;28;20043;-66
2021/06/23 09:49:12;;;;;;;24.25;18.58;;;22.20;99.90;;;;;;5065167;28;20520;-66
2021/06/23 09:51:49;;;;;;;26.75;18.10;;;22.20;99.90;;;;;;5065690;28;20084;-66
2021/06/23 09:54:18;;;;;;;28.25;19.67;;;22.20;99.90;;;;;;5068637;28;20040;-66
2021/06/23 09:56:47;;;;;;;29.02;19.10;;;22.20;99.90;;;;;;5066615;28;20075;-66
2021/06/23 09:59:34;;;;;;;29.17;18.15;;;22.30;99.90;;;;;;5068131;28;20467;-66
2021/06/23 10:02:01;;;;;;;27.23;18.85;;;22.40;99.90;;;;;;5068686;28;20516;-66
2021/06/23 10:04:33;;;;;;;27.02;19.98;;;22.40;99.90;;;;;;5069216;28;20157;-66
2021/06/23 10:07:02;;;;;;;27.42;18.40;;;22.20;99.90;;;;;;5067743;28;20056;-66
2021/06/23 10:09:30;;;;;;;26.13;17.65;;;22.50;99.90;;;;;;5066520;28;20056;-66
2021/06/23 10:12:01;;;;;;;25.45;18.02;;;22.60;99.90;;;;;;5067967;28;20044;-66
2021/06/23 10:14:30;;;;;;;29.10;17.65;;;22.60;99.90;;;;;;5066836;28;20455;-66
2021/06/23 10:17:00;;;;;;;26.02;17.58;;;22.70;99.90;;;;;;5067047;28;20063;-66
2021/06/23 10:19:28;;;;;;;23.30;17.02;;;22.70;99.90;;;;;;5064448;28;20143;-66
2021/06/23 10:21:55;;;;;;;28.20;17.35;;;22.60;99.90;;;;;;5066822;28;20056;-66
2021/06/23 10:24:25;;;;;;;30.90;17.63;;;22.40;99.90;;;;;;5070056;28;20125;-66
2021/06/23 10:26:53;;;;;;;24.05;16.85;;;22.70;99.90;;;;;;5064441;28;20455;-66
2021/06/23 10:29:25;;;;;;;23.70;17.98;;;22.90;99.90;;;;;;5067443;28;20053;-66
2021/06/23 10:31:53;;;;;;;22.83;16.90;;;22.90;99.90;;;;;;5069711;28;20083;-66
2021/06/23 10:34:21;;;;;;;24.75;17.63;;;22.90;99.90;;;;;;5070668;28;20052;-66
2021/06/23 10:36:49;;;;;;;21.70;15.85;;;23.10;99.90;;;;;;5076903;28;20044;-66
2021/06/23 10:39:19;;;;;;;28.25;18.10;;;23.20;99.90;;;;;;5073827;28;20075;-66
2021/06/23 10:41:59;;;;;;;23.48;16.10;;;23.30;99.90;;;;;;5078108;28;20487;-66
2021/06/23 10:44:27;;;;;;;26.08;17.13;;;23.20;99.90;;;;;;5075034;28;20467;-66
2021/06/23 10:46:56;;;;;;;23.60;16.42;;;23.30;99.90;;;;;;5077821;28;20432;-66
2021/06/23 10:49:44;;;;;;;25.33;17.35;;;23.30;99.90;;;;;;5074535;28;20056;-66
2021/06/23 10:52:40;;;;;;;22.20;16.80;;;23.40;99.90;;;;;;5077060;28;20047;-67
2021/06/23 10:55:24;;;;;;;27.52;15.50;;;23.50;99.90;;;;;;5075622;28;20063;-67
2021/06/23 10:57:53;;;;;;;26.20;15.68;;;23.70;99.90;;;;;;5074838;28;20585;-67
2021/06/23 11:00:32;;;;;;;21.58;15.57;;;23.50;99.90;;;;;;5078809;28;20106;-67
2021/06/23 11:03:07;;;;;;;23.45;16.33;;;23.50;99.90;;;;;;5078699;28;20417;-67
2021/06/23 11:05:39;;;;;;;20.08;15.95;;;23.80;99.90;;;;;;5076475;28;20140;-67
2021/06/23 11:08:29;;;;;;;21.58;14.50;;;23.90;99.90;;;;;;5078498;28;20428;-64
2021/06/23 11:10:57;;;;;;;25.08;16.13;;;24.20;99.90;;;;;;5077782;28;20427;-66
2021/06/23 11:13:28;;;;;;;19.67;13.50;;;24.40;99.90;;;;;;5074952;28;20478;-66
2021/06/23 11:15:56;;;;;;;18.60;13.95;;;25.10;99.90;;;;;;5079134;28;20504;-67
2021/06/23 11:18:33;;;;;;;18.13;13.00;;;25.70;99.90;;;;;;5076200;28;20079;-67
2021/06/23 11:21:03;;;;;;;19.85;13.77;;;26.80;99.90;;;;;;5078668;28;20547;-67
2021/06/23 11:24:01;;;;;;;18.33;13.18;;;27.40;99.90;;;;;;5078454;28;20048;-64
2021/06/23 11:26:53;;;;;;;15.38;12.70;;;28.10;99.90;;;;;;5075424;28;20511;-64
2021/06/23 11:29:47;;;;;;;16.80;11.90;;;28.60;99.90;;;;;;5077979;28;20127;-64
2021/06/23 11:32:26;;;;;;;20.15;12.38;;;28.90;99.90;;;;;;5068928;28;20143;-67
2021/06/23 11:34:57;;;;;;;16.85;11.07;;;29.40;99.90;;;;;;5076837;28;20129;-67
2021/06/23 11:37:28;;;;;;;16.83;12.50;;;29.80;99.90;;;;;;5078964;28;20060;-67
2021/06/23 11:40:24;;;;;;;17.13;11.07;;;29.40;99.90;;;;;;5075918;28;20051;-68
2021/06/23 11:42:52;;;;;;;16.13;11.10;;;29.90;99.90;;;;;;5080364;28;20101;-68
2021/06/23 11:45:21;;;;;;;16.15;11.15;;;29.80;99.90;;;;;;5077394;28;20056;-66
2021/06/23 11:47:48;;;;;;;18.58;11.30;;;28.90;99.90;;;;;;5079148;28;20055;-67
2021/06/23 11:50:16;;;;;;;14.10;10.63;;;29.00;99.90;;;;;;5077135;28;20416;-64
2021/06/23 11:52:43;;;;;;;14.90;10.82;;;29.10;99.90;;;;;;5076097;28;20047;-67
2021/06/23 11:55:12;;;;;;;16.65;11.10;;;29.20;99.90;;;;;;5076256;28;20802;-67
2021/06/23 11:57:41;;;;;;;16.48;10.55;;;29.80;99.90;;;;;;5048857;28;20556;-67
2021/06/23 12:00:09;;;;;;;14.75;11.18;;;29.40;99.90;;;;;;5049609;28;20122;-67
2021/06/23 12:02:38;;;;;;;17.05;11.10;;;29.00;99.90;;;;;;5053433;28;20043;-67
2021/06/23 12:05:06;;;;;;;17.48;9.82;;;29.00;99.90;;;;;;5053980;28;20044;-67
2021/06/23 12:07:33;;;;;;;15.43;10.45;;;29.30;99.90;;;;;;5052327;28;20167;-67
2021/06/23 12:10:02;;;;;;;12.88;9.48;;;29.50;99.90;;;;;;5053058;28;20048;-67
2021/06/23 12:12:29;;;;;;;13.40;10.05;;;30.10;99.90;;;;;;5052295;28;20067;-67
2021/06/23 12:14:56;;;;;;;13.48;10.18;;;30.00;99.90;;;;;;5053399;28;20106;-67
2021/06/23 12:17:23;;;;;;;13.43;10.25;;;30.20;99.90;;;;;;5053772;28;20427;-67
2021/06/23 12:19:53;;;;;;;12.98;9.32;;;29.60;99.90;;;;;;5052544;28;20052;-67
2021/06/23 12:22:20;;;;;;;13.63;10.10;;;30.20;99.90;;;;;;5053210;28;20060;-67
2021/06/23 12:24:48;;;;;;;11.25;9.38;;;30.80;99.90;;;;;;5053152;28;20060;-67
2021/06/23 12:27:18;;;;;;;13.30;9.00;;;31.30;99.90;;;;;;5053139;28;20060;-67
2021/06/23 12:29:45;;;;;;;11.15;8.90;;;31.70;99.90;;;;;;5053082;28;20052;-67
2021/06/23 12:32:12;;;;;;;13.45;8.98;;;31.80;99.90;;;;;;5052188;28;20106;-67
2021/06/23 12:34:39;;;;;;;11.55;8.98;;;31.20;99.90;;;;;;5062283;28;20136;-67
2021/06/23 12:37:07;;;;;;;13.20;9.05;;;30.80;99.90;;;;;;5072388;28;20052;-67
2021/06/23 12:39:34;;;;;;;14.23;9.13;;;31.00;99.90;;;;;;5072914;28;20168;-67
2021/06/23 12:42:01;;;;;;;12.50;8.10;;;30.80;99.90;;;;;;5072848;28;20044;-67
2021/06/23 12:44:28;;;;;;;11.77;8.55;;;30.80;99.90;;;;;;5072490;28;20497;-67
2021/06/23 12:46:56;;;;;;;17.83;7.90;;;30.60;99.90;;;;;;5072952;28;20109;-67
2021/06/23 12:49:24;;;;;;;11.93;7.75;;;31.40;99.90;;;;;;5071842;28;20087;-67
2021/06/23 12:51:51;;;;;;;12.75;8.38;;;31.60;99.90;;;;;;5068683;28;20056;-67